Time;durP1;ratioP1;P1;durP2;ratioP2;P2;SDS_P1;SDS_P2;PMS_P1;PMS_P2;Temp;Humidity;BMP_temperature;BMP_pressure;BME280_temperature;BME280_humidity;BME280_pressure;Samples;Min_cycle;Max_cycle;Signal;HPM_P1;HPM_P2
2023/07/21 00:00:32;;;;;;;;;15.25;13.25;26.10;53.00;;;;;;111386;1238;49961;-71
2023/07/21 00:03:19;;;;;;;;;16.33;15.00;26.10;52.60;;;;;;111404;1238;57114;-73
2023/07/21 00:05:46;;;;;;;;;14.00;13.00;26.10;52.50;;;;;;111655;1239;45089;-70
2023/07/21 00:08:13;;;;;;;;;15.00;13.50;26.10;52.30;;;;;;111369;1239;49332;-72
2023/07/21 00:10:40;;;;;;;;;17.00;15.00;26.20;52.30;;;;;;111444;1243;49208;-70
2023/07/21 00:13:07;;;;;;;;;14.75;14.50;26.20;52.30;;;;;;111335;1241;53646;-71
2023/07/21 00:15:34;;;;;;;;;13.00;12.00;26.20;52.00;;;;;;111715;1243;45027;-71
2023/07/21 00:18:03;;;;;;;;;14.25;14.25;26.10;51.80;;;;;;111352;1243;49824;-70
2023/07/21 00:20:30;;;;;;;;;13.25;11.75;26.10;51.60;;;;;;111369;1243;49442;-69
2023/07/21 00:22:58;;;;;;;;;14.33;13.00;26.10;51.80;;;;;;111356;1243;54068;-71
2023/07/21 00:25:25;;;;;;;;;14.00;12.00;26.10;51.60;;;;;;111692;1238;44249;-70
2023/07/21 00:27:52;;;;;;;;;14.75;13.75;26.00;51.60;;;;;;111332;1238;49458;-68
2023/07/21 00:30:21;;;;;;;;;14.00;13.75;26.00;51.50;;;;;;111325;1243;49461;-70
2023/07/21 00:32:47;;;;;;;;;13.00;12.00;26.00;51.50;;;;;;111345;1239;53805;-72
2023/07/21 00:35:14;;;;;;;;;13.00;12.75;26.00;51.50;;;;;;111750;1243;44806;-70
2023/07/21 00:37:41;;;;;;;;;15.00;13.50;26.00;51.50;;;;;;111332;1240;49172;-69
2023/07/21 00:40:09;;;;;;;;;16.25;14.50;26.00;51.00;;;;;;111399;1240;49696;-69
2023/07/21 00:42:37;;;;;;;;;14.75;12.75;25.90;51.30;;;;;;111342;1244;53497;-69
2023/07/21 00:45:04;;;;;;;;;12.67;12.00;25.90;51.40;;;;;;111620;1243;44106;-70
2023/07/21 00:47:34;;;;;;;;;13.25;13.00;25.90;51.40;;;;;;111363;1240;49121;-72
2023/07/21 00:50:01;;;;;;;;;13.25;12.75;25.90;51.20;;;;;;111429;1240;49249;-71
2023/07/21 00:52:28;;;;;;;;;14.00;13.00;25.90;51.10;;;;;;111427;1243;54127;-71
2023/07/21 00:54:55;;;;;;;;;13.50;12.75;25.90;51.10;;;;;;111677;1239;44597;-70
2023/07/21 00:57:22;;;;;;;;;14.00;13.50;25.90;51.20;;;;;;111391;1241;49639;-70
2023/07/21 00:59:50;;;;;;;;;13.50;12.75;25.90;50.90;;;;;;111349;1244;50188;-72
2023/07/21 01:02:18;;;;;;;;;14.25;13.00;25.90;50.90;;;;;;111386;1243;53534;-72
2023/07/21 01:04:46;;;;;;;;;14.67;13.67;25.90;50.80;;;;;;111682;1243;46017;-70
2023/07/21 01:07:15;;;;;;;;;13.25;11.25;25.90;50.90;;;;;;111382;1242;49213;-71
2023/07/21 01:09:43;;;;;;;;;15.50;13.75;25.90;50.80;;;;;;111420;1242;48951;-70
2023/07/21 01:12:11;;;;;;;;;13.67;12.67;25.80;50.70;;;;;;111377;1244;53825;-71
2023/07/21 01:14:38;;;;;;;;;12.75;11.75;25.80;50.70;;;;;;111669;1243;44554;-71
2023/07/21 01:17:07;;;;;;;;;13.50;13.00;25.80;50.60;;;;;;111368;1244;50099;-71
2023/07/21 01:19:36;;;;;;;;;13.00;12.00;25.80;50.60;;;;;;111370;1238;49200;-69
2023/07/21 01:22:10;;;;;;;;;15.25;15.00;25.80;50.50;;;;;;111463;1243;53967;-69
2023/07/21 01:24:48;;;;;;;;;13.25;13.00;25.80;50.40;;;;;;111657;1240;44687;-69
2023/07/21 01:27:20;;;;;;;;;13.00;12.00;25.80;50.40;;;;;;111487;1243;50183;-70
2023/07/21 01:29:48;;;;;;;;;14.00;11.00;25.80;50.30;;;;;;111364;1243;49440;-69
2023/07/21 01:32:19;;;;;;;;;13.00;12.75;25.80;50.10;;;;;;111229;1240;54022;-68
2023/07/21 01:34:46;;;;;;;;;15.00;13.25;25.70;50.10;;;;;;111633;1240;45301;-69
2023/07/21 01:37:13;;;;;;;;;12.00;11.00;25.70;50.20;;;;;;111337;1243;50414;-69
2023/07/21 01:39:41;;;;;;;;;15.50;12.25;25.60;50.70;;;;;;111349;1243;49476;-68
2023/07/21 01:42:08;;;;;;;;;13.75;11.50;25.60;50.30;;;;;;111300;1243;54102;-69
2023/07/21 01:44:35;;;;;;;;;14.00;12.00;25.60;50.20;;;;;;111449;1241;44423;-70
2023/07/21 01:47:04;;;;;;;;;12.33;12.00;25.50;50.20;;;;;;111327;1242;49905;-69
2023/07/21 01:49:31;;;;;;;;;12.75;11.75;25.60;50.30;;;;;;111340;1240;49588;-69
2023/07/21 01:51:58;;;;;;;;;12.25;11.00;25.60;50.20;;;;;;111310;1243;53837;-69
2023/07/21 01:54:43;;;;;;;;;13.50;13.00;25.50;50.10;;;;;;111618;1240;45077;-70
2023/07/21 01:57:14;;;;;;;;;13.50;12.50;25.50;50.10;;;;;;111350;1244;50411;-70
2023/07/21 01:59:43;;;;;;;;;15.33;13.00;25.50;50.00;;;;;;111368;1243;49857;-70
2023/07/21 02:02:11;;;;;;;;;13.00;12.00;25.50;49.90;;;;;;111353;1241;53543;-70
2023/07/21 02:04:38;;;;;;;;;14.25;13.50;25.50;50.00;;;;;;111704;1240;44385;-71
2023/07/21 02:07:05;;;;;;;;;12.00;12.00;25.40;50.20;;;;;;111467;1240;49947;-70
2023/07/21 02:09:32;;;;;;;;;12.50;11.00;25.40;50.10;;;;;;111334;1243;49550;-71
2023/07/21 02:11:59;;;;;;;;;12.33;12.00;25.30;50.00;;;;;;111346;1243;54105;-70
2023/07/21 02:14:26;;;;;;;;;12.75;12.00;25.30;50.20;;;;;;111682;1239;45160;-70
2023/07/21 02:16:54;;;;;;;;;12.00;11.00;25.20;50.10;;;;;;111303;1243;49267;-70
2023/07/21 02:19:21;;;;;;;;;15.00;13.25;25.20;50.10;;;;;;111359;1238;49363;-70
2023/07/21 02:21:48;;;;;;;;;14.00;12.00;25.20;50.00;;;;;;111383;1240;53746;-70
2023/07/21 02:24:14;;;;;;;;;13.00;12.00;25.20;50.00;;;;;;111490;1244;45222;-70
2023/07/21 02:26:41;;;;;;;;;13.75;13.00;25.20;50.00;;;;;;111426;1238;49251;-69
2023/07/21 02:29:10;;;;;;;;;16.00;13.25;25.20;50.20;;;;;;111327;1244;49314;-69
2023/07/21 02:31:37;;;;;;;;;13.75;13.25;25.20;50.10;;;;;;111300;1244;53700;-68
2023/07/21 02:34:05;;;;;;;;;13.75;12.75;25.10;50.20;;;;;;111398;1244;45306;-69
2023/07/21 02:36:32;;;;;;;;;14.50;13.50;25.10;50.30;;;;;;111591;1243;49452;-70
2023/07/21 02:38:59;;;;;;;;;13.00;12.75;25.10;50.40;;;;;;111326;1243;50428;-71
2023/07/21 02:41:26;;;;;;;;;12.00;11.33;25.10;50.50;;;;;;111340;1243;53862;-71
2023/07/21 02:43:53;;;;;;;;;14.25;13.25;25.00;50.80;;;;;;111355;1241;44851;-70
2023/07/21 02:46:20;;;;;;;;;14.33;13.33;25.00;51.00;;;;;;111701;1241;48981;-70
2023/07/21 02:48:47;;;;;;;;;13.67;13.00;25.00;51.30;;;;;;111483;1243;49645;-72
2023/07/21 02:51:14;;;;;;;;;14.00;13.00;25.00;51.30;;;;;;111430;1243;53070;-70
2023/07/21 02:53:41;;;;;;;;;15.75;14.75;25.00;51.80;;;;;;111408;1238;44736;-70
2023/07/21 02:56:09;;;;;;;;;15.67;13.00;24.90;51.40;;;;;;111705;1243;50108;-70
2023/07/21 02:58:35;;;;;;;;;14.25;13.75;25.00;51.50;;;;;;111326;1243;49237;-69
2023/07/21 03:01:03;;;;;;;;;14.25;14.00;24.90;51.60;;;;;;111223;1244;53967;-70
2023/07/21 03:03:32;;;;;;;;;16.00;13.00;24.90;51.50;;;;;;111381;1240;45059;-71
2023/07/21 03:06:00;;;;;;;;;15.25;14.25;24.90;51.70;;;;;;111694;1238;49557;-71
2023/07/21 03:08:29;;;;;;;;;16.00;14.00;24.80;51.90;;;;;;111433;1243;49533;-71
2023/07/21 03:10:56;;;;;;;;;15.00;13.50;24.80;52.20;;;;;;111411;1240;54031;-70
2023/07/21 03:13:24;;;;;;;;;15.33;13.33;24.80;51.90;;;;;;111385;1243;44301;-70
2023/07/21 03:15:52;;;;;;;;;15.00;13.75;24.80;51.70;;;;;;111677;1239;49278;-70
2023/07/21 03:18:19;;;;;;;;;15.00;13.00;24.80;51.90;;;;;;111370;1243;49042;-70
2023/07/21 03:20:49;;;;;;;;;12.50;12.50;24.70;51.50;;;;;;111382;1243;53470;-70
2023/07/21 03:23:16;;;;;;;;;15.00;13.25;24.70;51.50;;;;;;111398;1238;44565;-68
2023/07/21 03:25:43;;;;;;;;;13.25;12.25;24.70;51.30;;;;;;111354;1240;49738;-70
2023/07/21 03:28:10;;;;;;;;;14.00;13.00;24.60;51.10;;;;;;111373;1240;49028;-68
2023/07/21 03:30:37;;;;;;;;;14.25;12.25;24.60;51.10;;;;;;111375;1240;53338;-69
2023/07/21 03:33:04;;;;;;;;;17.25;15.00;24.60;51.50;;;;;;111406;1238;44290;-69
2023/07/21 03:35:31;;;;;;;;;13.50;13.00;24.60;51.70;;;;;;111670;1238;49220;-70
2023/07/21 03:37:58;;;;;;;;;17.50;16.00;24.60;52.00;;;;;;111379;1240;49988;-70
2023/07/21 03:40:25;;;;;;;;;14.00;13.75;24.60;52.30;;;;;;111394;1238;53645;-71
2023/07/21 03:42:53;;;;;;;;;15.00;14.50;24.60;52.30;;;;;;111337;1240;44964;-69
2023/07/21 03:45:20;;;;;;;;;16.33;14.33;24.60;52.40;;;;;;111671;1244;49694;-69
2023/07/21 03:47:48;;;;;;;;;16.25;15.50;24.50;52.40;;;;;;111260;1240;49943;-70
2023/07/21 03:50:15;;;;;;;;;13.00;13.00;24.50;52.40;;;;;;111376;1238;54002;-71
2023/07/21 03:52:42;;;;;;;;;17.00;15.00;24.50;52.60;;;;;;111435;1243;44771;-69
2023/07/21 03:55:09;;;;;;;;;17.00;15.75;24.50;52.60;;;;;;111687;1238;49532;-70
2023/07/21 03:57:36;;;;;;;;;15.00;14.00;24.40;52.50;;;;;;111415;1243;48904;-70
2023/07/21 04:00:05;;;;;;;;;13.67;13.00;24.50;52.10;;;;;;111481;1239;55245;-70
2023/07/21 04:02:32;;;;;;;;;16.33;15.00;24.50;51.80;;;;;;111530;1243;44131;-71
2023/07/21 04:04:59;;;;;;;;;13.50;12.75;24.50;51.70;;;;;;111786;1238;49093;-69
2023/07/21 04:07:26;;;;;;;;;13.00;12.00;24.40;51.30;;;;;;111415;1240;49052;-71
2023/07/21 04:09:54;;;;;;;;;14.00;12.00;24.50;51.50;;;;;;111475;1244;53818;-71
2023/07/21 04:12:21;;;;;;;;;13.75;12.50;24.40;51.60;;;;;;111409;1243;44701;-71
2023/07/21 04:14:48;;;;;;;;;12.50;12.50;24.50;54.90;;;;;;111679;1239;48867;-70
2023/07/21 04:17:15;;;;;;;;;12.33;11.67;24.50;56.10;;;;;;111440;1238;49107;-78
2023/07/21 04:19:42;;;;;;;;;13.75;11.75;24.50;56.20;;;;;;111416;1240;53462;-77
2023/07/21 04:22:09;;;;;;;;;12.00;11.25;24.60;56.20;;;;;;111403;1239;44536;-64
2023/07/21 04:24:37;;;;;;;;;13.75;12.75;24.60;55.90;;;;;;111275;1238;49054;-65
2023/07/21 04:27:04;;;;;;;;;11.00;10.00;24.70;55.30;;;;;;111326;1241;49886;-68
2023/07/21 04:29:32;;;;;;;;;11.33;10.33;24.80;55.10;;;;;;111247;1238;54105;-66
2023/07/21 04:31:59;;;;;;;;;12.00;11.00;24.90;55.00;;;;;;111341;1238;46174;-68
2023/07/21 04:34:26;;;;;;;;;12.00;11.00;24.90;55.10;;;;;;111652;1238;49121;-64
2023/07/21 04:36:52;;;;;;;;;13.00;12.75;25.00;55.00;;;;;;111215;1244;49710;-64
2023/07/21 04:39:20;;;;;;;;;12.33;11.00;25.10;54.70;;;;;;111248;1238;53756;-66
2023/07/21 04:41:48;;;;;;;;;13.00;12.00;25.20;54.70;;;;;;111269;1239;45451;-69
2023/07/21 04:44:15;;;;;;;;;15.00;13.33;25.20;54.60;;;;;;111258;1241;48742;-70
2023/07/21 04:46:42;;;;;;;;;14.00;12.00;25.30;54.70;;;;;;111287;1238;49549;-69
2023/07/21 04:49:13;;;;;;;;;15.00;14.00;25.30;54.60;;;;;;111358;1243;54146;-70
2023/07/21 04:51:40;;;;;;;;;14.00;13.50;25.40;55.40;;;;;;111424;1243;44238;-68
2023/07/21 04:54:07;;;;;;;;;21.00;18.75;25.50;57.00;;;;;;111236;1238;50294;-69
2023/07/21 04:56:34;;;;;;;;;57.50;43.25;25.60;56.90;;;;;;110429;1240;1440756;-68
2023/07/21 04:59:02;;;;;;;;;64.50;43.50;25.70;57.00;;;;;;111244;1240;53735;-68
2023/07/21 05:01:31;;;;;;;;;58.67;43.00;25.80;57.00;;;;;;111250;1240;44265;-67
2023/07/21 05:03:58;;;;;;;;;60.25;41.75;25.90;56.80;;;;;;111286;1243;50028;-66
2023/07/21 05:06:26;;;;;;;;;51.00;39.00;25.90;57.00;;;;;;111291;1238;49636;-66
2023/07/21 05:08:53;;;;;;;;;56.00;41.00;26.00;56.80;;;;;;111273;1238;53592;-66
2023/07/21 05:11:19;;;;;;;;;54.25;39.00;26.10;56.60;;;;;;111259;1243;44856;-67
2023/07/21 05:13:48;;;;;;;;;54.00;41.00;26.10;56.20;;;;;;111276;1238;49428;-67
2023/07/21 05:16:15;;;;;;;;;54.75;42.25;26.20;56.30;;;;;;111291;1243;49493;-65
2023/07/21 05:18:42;;;;;;;;;52.00;40.50;26.30;55.90;;;;;;111335;1241;53928;-64
2023/07/21 05:21:09;;;;;;;;;54.00;39.75;26.30;55.70;;;;;;111280;1240;44538;-67
2023/07/21 05:23:36;;;;;;;;;53.25;39.00;26.40;55.50;;;;;;111277;1243;49523;-67
2023/07/21 05:26:03;;;;;;;;;53.33;40.00;26.40;55.40;;;;;;111296;1240;48995;-67
2023/07/21 05:28:30;;;;;;;;;49.33;36.00;26.50;55.20;;;;;;111352;1243;53750;-67
2023/07/21 05:30:57;;;;;;;;;51.50;37.75;26.50;55.10;;;;;;111414;1243;44689;-67
2023/07/21 05:33:24;;;;;;;;;47.50;36.00;26.60;54.90;;;;;;111380;1239;50424;-66
2023/07/21 05:35:52;;;;;;;;;47.50;37.75;26.60;54.70;;;;;;111679;1243;49696;-67
2023/07/21 05:38:19;;;;;;;;;45.25;32.50;26.70;54.70;;;;;;111281;1241;53447;-67
2023/07/21 05:40:56;;;;;;;;;51.50;37.00;26.70;54.40;;;;;;111344;1241;44847;-67
2023/07/21 05:43:24;;;;;;;;;48.00;35.33;26.80;54.30;;;;;;111318;1239;49653;-66
2023/07/21 05:45:51;;;;;;;;;49.75;37.00;26.80;54.20;;;;;;111329;1241;49147;-67
2023/07/21 05:48:19;;;;;;;;;49.75;37.50;26.80;54.10;;;;;;111196;1245;53764;-67
2023/07/21 05:50:46;;;;;;;;;49.00;34.33;26.90;54.20;;;;;;111321;1243;44211;-67
2023/07/21 05:53:14;;;;;;;;;53.25;37.25;26.90;53.90;;;;;;111247;1239;49251;-68
2023/07/21 05:55:42;;;;;;;;;47.75;36.50;27.00;53.80;;;;;;111163;1242;50203;-67
2023/07/21 05:58:09;;;;;;;;;52.50;38.00;27.00;53.70;;;;;;111299;1241;53738;-67
2023/07/21 06:00:36;;;;;;;;;43.75;34.00;27.00;53.60;;;;;;111243;1244;44671;-67
2023/07/21 06:03:03;;;;;;;;;48.25;35.00;27.00;53.50;;;;;;111284;1241;50472;-67
2023/07/21 06:05:32;;;;;;;;;47.00;33.67;27.00;53.40;;;;;;111282;1238;49529;-67
2023/07/21 06:07:59;;;;;;;;;48.33;34.00;27.10;53.40;;;;;;111243;1238;55613;-67
2023/07/21 06:10:25;;;;;;;;;45.75;34.00;27.10;53.30;;;;;;111275;1242;45447;-71
2023/07/21 06:12:52;;;;;;;;;36.67;31.00;27.10;53.80;;;;;;111330;1243;48942;-73
2023/07/21 06:15:19;;;;;;;;;47.25;33.00;27.10;54.10;;;;;;111645;1244;50206;-74
2023/07/21 06:17:46;;;;;;;;;36.00;29.50;27.20;54.10;;;;;;111320;1243;53197;-73
2023/07/21 06:20:13;;;;;;;;;35.25;29.00;27.30;54.60;;;;;;111375;1239;45032;-64
2023/07/21 06:22:41;;;;;;;;;37.33;29.00;27.30;55.60;;;;;;111330;1243;49704;-66
2023/07/21 06:25:08;;;;;;;;;28.67;25.33;27.30;55.50;;;;;;111641;1238;49156;-64
2023/07/21 06:27:35;;;;;;;;;27.50;24.50;27.40;55.70;;;;;;111255;1243;54326;-67
2023/07/21 06:30:02;;;;;;;;;29.50;23.25;27.40;55.70;;;;;;111355;1243;44871;-63
2023/07/21 06:32:29;;;;;;;;;25.33;21.67;27.40;56.30;;;;;;111339;1243;49656;-62
2023/07/21 06:34:56;;;;;;;;;24.25;22.00;27.40;56.60;;;;;;111406;1238;50447;-63
2023/07/21 06:37:23;;;;;;;;;26.00;24.00;27.40;55.90;;;;;;111319;1243;54167;-64
2023/07/21 06:39:51;;;;;;;;;26.33;22.33;27.40;55.90;;;;;;111320;1243;45284;-62
2023/07/21 06:42:18;;;;;;;;;32.00;28.67;27.50;55.90;;;;;;111334;1238;50675;-63
2023/07/21 06:44:45;;;;;;;;;42.00;32.00;27.50;56.00;;;;;;111302;1243;49281;-64
2023/07/21 06:47:14;;;;;;;;;44.00;33.67;27.50;55.90;;;;;;111290;1239;53553;-63
2023/07/21 06:49:41;;;;;;;;;46.00;34.50;27.60;56.20;;;;;;111290;1240;45526;-64
2023/07/21 06:52:09;;;;;;;;;44.25;34.00;27.60;56.30;;;;;;111241;1239;49105;-63
2023/07/21 06:54:38;;;;;;;;;36.33;29.00;27.70;56.00;;;;;;111288;1243;49605;-64
2023/07/21 06:57:06;;;;;;;;;37.33;30.00;27.70;55.90;;;;;;111324;1240;53194;-63
2023/07/21 06:59:34;;;;;;;;;38.75;30.25;27.80;55.90;;;;;;111287;1243;45690;-64
2023/07/21 07:02:01;;;;;;;;;38.50;30.50;27.90;55.80;;;;;;111303;1243;49789;-65
2023/07/21 07:04:28;;;;;;;;;31.00;28.75;27.90;55.70;;;;;;111289;1240;49529;-63
2023/07/21 07:06:55;;;;;;;;;32.25;26.00;27.90;55.80;;;;;;111207;1244;54059;-64
2023/07/21 07:09:23;;;;;;;;;27.50;25.25;28.00;55.70;;;;;;111239;1244;45415;-64
2023/07/21 07:11:51;;;;;;;;;25.67;21.67;28.00;55.50;;;;;;111256;1243;49001;-64
2023/07/21 07:14:18;;;;;;;;;25.75;22.50;28.10;55.50;;;;;;111385;1243;49817;-64
2023/07/21 07:16:45;;;;;;;;;26.33;23.33;28.20;55.50;;;;;;111266;1243;54575;-65
2023/07/21 07:19:12;;;;;;;;;25.75;21.50;28.20;55.40;;;;;;111410;1240;44923;-63
2023/07/21 07:21:40;;;;;;;;;26.00;24.33;28.30;55.10;;;;;;111225;1243;49672;-61
2023/07/21 07:24:09;;;;;;;;;31.00;24.33;28.30;54.90;;;;;;111273;1238;49671;-63
2023/07/21 07:26:36;;;;;;;;;27.25;21.25;28.40;54.90;;;;;;111333;1241;53578;-64
2023/07/21 07:29:03;;;;;;;;;27.00;23.00;28.40;55.00;;;;;;111271;1243;44595;-63
2023/07/21 07:31:31;;;;;;;;;23.75;20.25;28.50;54.90;;;;;;111316;1244;49778;-64
2023/07/21 07:33:58;;;;;;;;;25.00;22.00;28.50;54.90;;;;;;111230;1239;49668;-62
2023/07/21 07:36:25;;;;;;;;;22.00;19.50;28.50;54.60;;;;;;111555;1240;53942;-63
2023/07/21 07:38:52;;;;;;;;;23.00;19.75;28.60;54.70;;;;;;111272;1240;44973;-64
2023/07/21 07:41:20;;;;;;;;;23.00;21.00;28.60;54.40;;;;;;111270;1240;49838;-65
2023/07/21 07:43:47;;;;;;;;;23.50;21.00;28.70;54.50;;;;;;111306;1239;49090;-64
2023/07/21 07:46:16;;;;;;;;;22.67;20.33;28.70;54.50;;;;;;111352;1243;54836;-62
2023/07/21 07:48:45;;;;;;;;;24.33;19.00;28.80;54.30;;;;;;111280;1243;44776;-64
2023/07/21 07:51:12;;;;;;;;;20.00;19.25;28.80;54.40;;;;;;111328;1244;49102;-62
2023/07/21 07:53:39;;;;;;;;;20.00;16.00;28.90;54.40;;;;;;111314;1243;49923;-64
2023/07/21 07:56:06;;;;;;;;;23.00;19.75;28.90;54.40;;;;;;111693;1243;53588;-64
2023/07/21 07:58:33;;;;;;;;;20.33;18.33;28.90;54.10;;;;;;111283;1238;45078;-65
2023/07/21 08:01:00;;;;;;;;;23.00;21.25;29.00;53.90;;;;;;111360;1243;48937;-63
2023/07/21 08:03:27;;;;;;;;;22.75;20.25;29.10;54.00;;;;;;111395;1238;51703;-64
2023/07/21 08:05:54;;;;;;;;;19.50;18.25;29.10;53.90;;;;;;111654;1241;53136;-61
2023/07/21 08:08:22;;;;;;;;;19.00;18.00;29.10;54.00;;;;;;111313;1241;44815;-63
2023/07/21 08:10:49;;;;;;;;;20.75;17.25;29.10;53.90;;;;;;111337;1241;49071;-63
2023/07/21 08:13:16;;;;;;;;;25.00;19.75;29.20;53.70;;;;;;111302;1243;50547;-64
2023/07/21 08:15:44;;;;;;;;;21.67;20.00;29.30;53.80;;;;;;111675;1240;54381;-64
2023/07/21 08:18:12;;;;;;;;;19.33;17.33;29.30;53.80;;;;;;111385;1240;44628;-64
2023/07/21 08:20:40;;;;;;;;;22.25;17.50;29.40;53.80;;;;;;111366;1238;48797;-63
2023/07/21 08:23:07;;;;;;;;;22.00;18.00;29.40;53.60;;;;;;111332;1243;48915;-61
2023/07/21 08:25:35;;;;;;;;;31.00;24.75;29.50;53.80;;;;;;111306;1240;54242;-64
2023/07/21 08:28:03;;;;;;;;;28.75;24.75;29.50;53.80;;;;;;111294;1240;44762;-63
2023/07/21 08:30:30;;;;;;;;;30.00;25.75;29.50;53.40;;;;;;111286;1245;48987;-62
2023/07/21 08:32:58;;;;;;;;;27.25;23.00;29.60;53.60;;;;;;111353;1243;49331;-62
2023/07/21 08:35:27;;;;;;;;;30.50;26.25;29.60;53.50;;;;;;111350;1243;53385;-62
2023/07/21 08:37:56;;;;;;;;;28.00;22.25;29.70;53.50;;;;;;111279;1241;44349;-62
2023/07/21 08:40:23;;;;;;;;;32.50;27.00;29.70;52.80;;;;;;111322;1243;49514;-62
2023/07/21 08:42:50;;;;;;;;;31.75;26.50;29.80;53.20;;;;;;111191;1241;49423;-64
2023/07/21 08:45:20;;;;;;;;;33.75;29.75;29.80;53.20;;;;;;111349;1243;53978;-63
2023/07/21 08:47:48;;;;;;;;;39.00;32.75;29.80;53.60;;;;;;111311;1239;44564;-61
2023/07/21 08:50:18;;;;;;;;;65.75;47.50;29.90;53.10;;;;;;111301;1243;48817;-62
2023/07/21 08:52:46;;;;;;;;;55.75;42.25;29.90;53.10;;;;;;111358;1244;49341;-61
2023/07/21 08:55:13;;;;;;;;;52.75;41.00;30.00;53.70;;;;;;111284;1240;54026;-62
2023/07/21 08:57:40;;;;;;;;;57.00;40.25;30.00;53.10;;;;;;111298;1243;45835;-63
2023/07/21 09:00:10;;;;;;;;;51.25;39.25;30.00;53.10;;;;;;111298;1238;49823;-61
2023/07/21 09:02:45;;;;;;;;;54.25;41.00;30.00;53.10;;;;;;111293;1244;48971;-61
2023/07/21 09:05:17;;;;;;;;;54.25;42.00;30.10;53.20;;;;;;111343;1238;53561;-62
2023/07/21 09:07:45;;;;;;;;;53.00;41.67;30.10;53.00;;;;;;111337;1238;44508;-63
2023/07/21 09:10:13;;;;;;;;;48.75;39.00;30.20;53.40;;;;;;111247;1238;50222;-62
2023/07/21 09:12:39;;;;;;;;;50.50;39.00;30.20;53.00;;;;;;111287;1243;49417;-63
2023/07/21 09:15:09;;;;;;;;;49.25;39.50;30.20;53.20;;;;;;111291;1238;53988;-63
2023/07/21 09:17:43;;;;;;;;;50.50;38.50;30.30;53.00;;;;;;111310;1238;44973;-62
2023/07/21 09:20:11;;;;;;;;;50.50;39.00;30.30;53.00;;;;;;111371;1243;49280;-62
2023/07/21 09:22:39;;;;;;;;;47.50;37.25;30.30;53.20;;;;;;111378;1243;49058;-61
2023/07/21 09:25:08;;;;;;;;;48.67;39.00;30.30;53.40;;;;;;111337;1239;54309;-63
2023/07/21 09:27:38;;;;;;;;;51.75;38.75;30.30;53.30;;;;;;111336;1240;45166;-61
2023/07/21 09:30:06;;;;;;;;;48.75;38.75;30.40;53.30;;;;;;111262;1240;49268;-62
2023/07/21 09:32:40;;;;;;;;;45.00;36.50;30.40;53.40;;;;;;111330;1243;49966;-60
2023/07/21 09:35:09;;;;;;;;;52.75;40.25;30.40;53.30;;;;;;111378;1243;53996;-63
2023/07/21 09:37:38;;;;;;;;;60.25;46.50;30.50;53.20;;;;;;111279;1243;45025;-62
2023/07/21 10:13:45;;;;;;;;;22.75;21.00;;;;;;;;107868;1278;34787;-62
2023/07/21 10:16:12;;;;;;;;;22.25;20.75;;;;;;;;110032;1253;48788;-60
2023/07/21 10:18:58;;;;;;;;;21.25;18.75;;;;;;;;110068;1253;53630;-58
2023/07/21 10:21:29;;;;;;;;;22.00;21.25;;;;;;;;109988;1253;44697;-58
2023/07/21 10:24:00;;;;;;;;;20.75;18.25;;;;;;;;110082;1256;49867;-57
2023/07/21 10:26:29;;;;;;;;;19.50;18.50;;;;;;;;109613;1253;718003;-56
2023/07/21 10:29:13;;;;;;;;;18.00;17.00;;;;;;;;110237;1251;53770;-57
2023/07/21 10:31:50;;;;;;;;;16.75;15.50;;;;;;;;110285;1254;44272;-57
2023/07/21 10:34:17;;;;;;;;;22.25;19.00;;;;;;;;110307;1250;49783;-56
2023/07/21 10:36:49;;;;;;;;;18.50;18.00;;;;;;;;110262;1251;49092;-56
2023/07/21 10:39:19;;;;;;;;;23.00;20.00;;;;;;;;110344;1254;53663;-55
2023/07/21 10:41:47;;;;;;;;;19.00;17.67;;;;;;;;110212;1254;44868;-51
2023/07/21 10:44:15;;;;;;;;;16.25;15.25;;;;;;;;110153;1254;49719;-53
2023/07/21 10:46:43;;;;;;;;;20.50;18.50;;;;;;;;110954;1241;48799;-51
2023/07/21 10:49:15;;;;;;;;;20.00;19.50;;;;;;;;111003;1246;53238;-49
2023/07/21 10:51:47;;;;;;;;;19.25;18.25;;;;;;;;111097;1241;45679;-52
2023/07/21 10:54:16;;;;;;;;;19.00;18.00;;;;;;;;111078;1244;49715;-53
2023/07/21 10:56:44;;;;;;;;;19.33;16.00;;;;;;;;110987;1247;50198;-52
2023/07/21 10:59:13;;;;;;;;;19.75;18.25;;;;;;;;110956;1246;54118;-55
2023/07/21 11:01:40;;;;;;;;;15.00;14.25;;;;;;;;111137;1244;44985;-54
2023/07/21 11:04:09;;;;;;;;;18.00;18.00;;;;;;;;111093;1241;49470;-53
2023/07/21 11:06:43;;;;;;;;;17.00;16.00;;;;;;;;110995;1244;50247;-51
2023/07/21 11:09:13;;;;;;;;;20.00;17.50;;;;;;;;111242;1239;53779;-55
2023/07/21 11:11:42;;;;;;;;;16.00;15.00;;;;;;;;111232;1243;45130;-55
2023/07/21 11:14:12;;;;;;;;;16.33;15.00;;;;;;;;111289;1240;49739;-54
2023/07/21 11:16:44;;;;;;;;;16.75;15.00;;;;;;;;111472;1242;49272;-53
2023/07/21 11:19:11;;;;;;;;;15.25;14.50;;;;;;;;111258;1239;54054;-54
2023/07/21 11:21:39;;;;;;;;;15.00;14.00;;;;;;;;111403;1238;45675;-52
2023/07/21 11:24:08;;;;;;;;;19.00;17.50;;;;;;;;111259;1238;50395;-53
2023/07/21 11:26:36;;;;;;;;;18.00;16.67;;;;;;;;111317;1240;49411;-56
2023/07/21 11:29:07;;;;;;;;;17.00;16.00;;;;;;;;111215;1243;55014;-56
2023/07/21 11:31:36;;;;;;;;;17.00;16.00;;;;;;;;111286;1238;45138;-57
2023/07/21 11:34:16;;;;;;;;;16.25;15.00;;;;;;;;111274;1238;49175;-57
2023/07/21 11:36:44;;;;;;;;;20.33;17.00;;;;;;;;111226;1240;49018;-57
2023/07/21 11:39:11;;;;;;;;;16.75;16.00;;;;;;;;111243;1243;54424;-56
2023/07/21 11:41:41;;;;;;;;;17.33;16.00;;;;;;;;111282;1240;44544;-57
2023/07/21 11:44:10;;;;;;;;;19.00;18.00;;;;;;;;111241;1240;49542;-56
2023/07/21 11:46:38;;;;;;;;;18.00;17.00;;;;;;;;111304;1240;49501;-57
2023/07/21 11:49:11;;;;;;;;;19.00;18.00;;;;;;;;111322;1240;53476;-59
2023/07/21 11:51:42;;;;;;;;;18.75;16.75;;;;;;;;111234;1240;45628;-56
2023/07/21 11:54:20;;;;;;;;;21.00;19.00;;;;;;;;111298;1243;49057;-56
2023/07/21 11:56:48;;;;;;;;;17.00;16.00;;;;;;;;111250;1239;49549;-56
2023/07/21 11:59:16;;;;;;;;;17.25;16.25;;;;;;;;111252;1241;54431;-56
2023/07/21 12:01:44;;;;;;;;;18.00;16.75;;;;;;;;111300;1238;44339;-56
2023/07/21 12:04:11;;;;;;;;;17.33;15.33;;;;;;;;111303;1243;48929;-57
2023/07/21 12:06:39;;;;;;;;;18.00;17.75;;;;;;;;111305;1241;49080;-57
2023/07/21 12:09:07;;;;;;;;;18.00;17.25;;;;;;;;111269;1241;54160;-58
2023/07/21 12:11:34;;;;;;;;;19.25;17.75;;;;;;;;111291;1243;44534;-57
2023/07/21 12:14:02;;;;;;;;;18.00;16.67;;;;;;;;111330;1244;50302;-56
2023/07/21 12:16:31;;;;;;;;;17.00;16.25;;;;;;;;111284;1239;49665;-57
2023/07/21 12:18:59;;;;;;;;;17.25;17.00;;;;;;;;111292;1242;53997;-57
2023/07/21 12:21:27;;;;;;;;;17.00;16.25;;;;;;;;111230;1243;44956;-58
2023/07/21 12:23:54;;;;;;;;;16.00;15.25;;;;;;;;111228;1243;49638;-56
2023/07/21 12:26:21;;;;;;;;;16.67;15.33;;;;;;;;111257;1243;49269;-55
2023/07/21 12:28:50;;;;;;;;;21.00;18.33;;;;;;;;111260;1240;54587;-56
2023/07/21 12:31:17;;;;;;;;;19.00;18.25;;;;;;;;111301;1243;45506;-56
2023/07/21 12:33:45;;;;;;;;;19.50;18.00;;;;;;;;111263;1239;49103;-56
2023/07/21 12:36:13;;;;;;;;;19.25;18.00;;;;;;;;111280;1240;49520;-58
2023/07/21 12:38:43;;;;;;;;;21.50;20.50;;;;;;;;111222;1243;54105;-56
2023/07/21 12:41:11;;;;;;;;;20.00;18.00;;;;;;;;111198;1242;44837;-56
2023/07/21 12:43:38;;;;;;;;;18.00;17.00;;;;;;;;111164;1243;51286;-55
2023/07/21 12:46:06;;;;;;;;;17.00;16.33;;;;;;;;111257;1244;48936;-56
2023/07/21 12:48:33;;;;;;;;;20.00;17.00;;;;;;;;111220;1238;54167;-57
2023/07/21 12:51:01;;;;;;;;;17.75;17.00;;;;;;;;111244;1243;44773;-55
2023/07/21 12:53:28;;;;;;;;;15.75;15.00;;;;;;;;111156;1241;48919;-58
2023/07/21 12:55:56;;;;;;;;;16.00;15.67;;;;;;;;111256;1243;48650;-55
2023/07/21 12:58:24;;;;;;;;;18.00;16.25;;;;;;;;111232;1243;53802;-56
2023/07/21 13:00:51;;;;;;;;;17.50;16.00;;;;;;;;111235;1241;44794;-56
2023/07/21 13:03:18;;;;;;;;;18.00;17.25;;;;;;;;111200;1243;49907;-55
2023/07/21 13:05:46;;;;;;;;;23.25;20.25;;;;;;;;111254;1243;49085;-56
2023/07/21 13:08:13;;;;;;;;;17.00;16.00;;;;;;;;111232;1239;54461;-57
2023/07/21 13:10:40;;;;;;;;;19.00;17.25;;;;;;;;111198;1243;44519;-55
2023/07/21 13:13:08;;;;;;;;;18.25;17.75;;;;;;;;111210;1243;48977;-55
2023/07/21 13:15:35;;;;;;;;;21.67;19.67;;;;;;;;111236;1243;48744;-55
2023/07/21 13:18:03;;;;;;;;;20.67;17.67;;;;;;;;111207;1243;54440;-54